createdAt,value
2019-03-13T00:01:36.156Z,0.97
2019-03-13T00:04:23.474Z,1.00
2019-03-13T00:07:10.716Z,1.30
2019-03-13T00:09:58.028Z,1.10
2019-03-13T00:12:45.525Z,1.17
2019-03-13T00:15:33.028Z,1.10
2019-03-13T00:18:20.662Z,0.97
2019-03-13T00:21:08.035Z,1.30
2019-03-13T00:23:55.275Z,1.37
2019-03-13T00:26:42.565Z,1.20
2019-03-13T00:29:30.063Z,1.30
2019-03-13T00:32:17.623Z,1.00
2019-03-13T00:35:04.731Z,1.10
2019-03-13T00:37:52.291Z,0.93
2019-03-13T00:40:39.939Z,1.23
2019-03-13T00:43:27.165Z,0.90
2019-03-13T00:46:14.774Z,1.17
2019-03-13T00:49:02.413Z,1.20
2019-03-13T00:51:49.893Z,1.20
2019-03-13T00:54:37.132Z,0.93
2019-03-13T00:57:24.591Z,1.10
2019-03-13T01:00:13.740Z,1.00
2019-03-13T01:03:00.647Z,1.17
2019-03-13T01:05:55.585Z,1.23
2019-03-13T01:08:42.840Z,1.30
2019-03-13T01:11:30.378Z,1.23
2019-03-13T01:14:18.016Z,0.80
2019-03-13T01:17:06.664Z,1.00
2019-03-13T01:19:53.894Z,0.90
2019-03-13T01:22:41.484Z,1.10
2019-03-13T01:25:28.692Z,1.10
2019-03-13T01:28:15.956Z,1.03
2019-03-13T01:31:11.216Z,1.00
2019-03-13T01:34:12.723Z,1.00
2019-03-13T01:36:59.458Z,0.90
2019-03-13T01:39:47.155Z,1.20
2019-03-13T01:42:34.711Z,0.90
2019-03-13T01:45:22.065Z,1.30
2019-03-13T01:48:09.642Z,1.40
2019-03-13T01:50:57.135Z,1.43
2019-03-13T01:53:44.685Z,1.00
2019-03-13T01:56:31.968Z,1.37
2019-03-13T01:59:19.799Z,1.33
2019-03-13T02:02:07.397Z,1.23
2019-03-13T02:04:54.915Z,1.70
2019-03-13T02:07:42.424Z,1.23
2019-03-13T02:10:29.997Z,1.30
2019-03-13T02:13:17.465Z,1.20
2019-03-13T02:16:05.118Z,1.23
2019-03-13T02:18:52.462Z,1.30
2019-03-13T02:21:40.046Z,1.20
2019-03-13T02:24:27.506Z,1.70
2019-03-13T02:27:15.058Z,1.27
2019-03-13T02:30:02.722Z,1.50
2019-03-13T02:32:50.320Z,1.40
2019-03-13T02:35:37.758Z,1.30
2019-03-13T02:38:25.142Z,1.70
2019-03-13T02:41:12.639Z,1.50
2019-03-13T02:44:00.009Z,1.40
2019-03-13T02:46:47.327Z,1.67
2019-03-13T02:49:35.073Z,1.80
2019-03-13T02:52:22.533Z,1.70
2019-03-13T02:55:10.277Z,1.77
2019-03-13T02:57:57.981Z,1.77
2019-03-13T03:01:07.427Z,1.80
2019-03-13T03:03:55.980Z,1.80
2019-03-13T03:06:43.558Z,2.00
2019-03-13T03:09:31.097Z,1.90
2019-03-13T03:12:18.721Z,1.93
2019-03-13T03:15:10.935Z,2.00
2019-03-13T03:17:58.589Z,1.90
2019-03-13T03:20:45.860Z,1.70
2019-03-13T03:23:33.063Z,1.67
2019-03-13T03:26:20.702Z,1.33
2019-03-13T03:29:08.499Z,1.57
2019-03-13T03:31:56.061Z,1.67
2019-03-13T03:34:43.413Z,1.63
2019-03-13T03:37:31.007Z,1.50
2019-03-13T03:40:22.657Z,1.40
2019-03-13T03:43:07.054Z,1.50
2019-03-13T03:45:54.369Z,1.27
2019-03-13T03:48:42.113Z,1.63
2019-03-13T03:51:29.167Z,1.50
2019-03-13T03:54:16.756Z,1.60
2019-03-13T03:57:04.117Z,1.30
2019-03-13T03:59:51.707Z,1.40
2019-03-13T04:02:39.243Z,1.27
2019-03-13T04:05:26.853Z,1.40
2019-03-13T04:08:14.536Z,1.40
2019-03-13T04:11:02.028Z,1.37
2019-03-13T04:13:49.227Z,1.50
2019-03-13T04:16:36.899Z,1.30
2019-03-13T04:19:24.022Z,1.33
2019-03-13T04:22:11.303Z,1.47
2019-03-13T04:25:10.138Z,1.40
2019-03-13T04:27:57.481Z,1.33
2019-03-13T04:30:44.505Z,1.40
2019-03-13T04:33:32.127Z,1.50
2019-03-13T04:36:19.488Z,1.80
2019-03-13T04:39:07.077Z,1.83
2019-03-13T04:41:54.802Z,1.80
2019-03-13T04:44:42.186Z,1.40
2019-03-13T04:47:29.780Z,1.53
2019-03-13T04:50:17.059Z,1.30
2019-03-13T04:53:04.639Z,1.50
2019-03-13T04:55:52.735Z,1.50
2019-03-13T04:58:40.084Z,1.67
2019-03-13T05:01:27.050Z,1.37
2019-03-13T05:04:14.052Z,1.40
2019-03-13T05:07:01.192Z,1.30
2019-03-13T05:09:48.703Z,1.30
2019-03-13T05:12:35.728Z,1.40
2019-03-13T05:15:23.006Z,1.10
2019-03-13T05:18:10.274Z,1.10
2019-03-13T05:20:57.267Z,1.10
2019-03-13T05:23:44.962Z,1.20
2019-03-13T05:26:32.231Z,0.90
2019-03-13T05:29:19.171Z,1.10
2019-03-13T05:32:06.486Z,1.33
2019-03-13T05:34:54.127Z,1.20
2019-03-13T05:37:41.384Z,1.23
2019-03-13T05:40:28.868Z,1.20
2019-03-13T05:43:16.557Z,1.30
2019-03-13T05:46:04.148Z,1.20
2019-03-13T05:48:51.479Z,1.17
2019-03-13T05:51:39.045Z,1.20
2019-03-13T05:54:26.709Z,1.33
2019-03-13T05:57:14.256Z,1.10
2019-03-13T06:00:01.689Z,1.27
2019-03-13T06:02:49.428Z,1.40
2019-03-13T06:05:36.912Z,1.10
2019-03-13T06:08:24.411Z,1.20
2019-03-13T06:11:11.973Z,1.10
2019-03-13T06:13:59.649Z,1.57
2019-03-13T06:16:47.239Z,1.20
2019-03-13T06:19:34.703Z,1.40
2019-03-13T06:22:22.367Z,0.90
2019-03-13T06:25:10.157Z,1.20
2019-03-13T06:27:57.427Z,1.20
2019-03-13T06:30:44.482Z,1.30
2019-03-13T06:33:32.220Z,1.30
2019-03-13T06:36:19.685Z,1.20
2019-03-13T06:39:07.423Z,1.33
2019-03-13T06:41:54.707Z,1.47
2019-03-13T06:44:41.960Z,1.33
2019-03-13T06:47:29.300Z,1.40
2019-03-13T06:50:17.226Z,1.50
2019-03-13T06:53:04.614Z,1.37
2019-03-13T06:55:52.195Z,1.40
2019-03-13T06:58:53.690Z,1.43
2019-03-13T07:01:49.954Z,1.97
2019-03-13T07:04:54.636Z,1.70
2019-03-13T07:07:51.330Z,1.60
2019-03-13T07:11:00.451Z,1.57
2019-03-13T07:13:56.462Z,1.60
2019-03-13T07:17:02.811Z,1.47
2019-03-13T07:20:14.304Z,1.47
2019-03-13T07:23:19.008Z,1.37
2019-03-13T07:26:42.883Z,1.77
2019-03-13T07:29:35.742Z,1.57
2019-03-13T07:32:47.641Z,1.40
2019-03-13T07:35:44.431Z,1.50
2019-03-13T07:39:02.814Z,1.40
2019-03-13T07:42:02.817Z,1.20
2019-03-13T07:45:07.152Z,1.20
2019-03-13T07:48:05.708Z,1.30
2019-03-13T07:51:12.419Z,1.30
2019-03-13T07:54:16.589Z,1.47
2019-03-13T07:57:35.004Z,1.23
2019-03-13T08:00:40.654Z,1.40
2019-03-13T08:03:41.218Z,1.43
2019-03-13T08:06:50.394Z,1.50
2019-03-13T08:09:47.893Z,1.30
2019-03-13T08:12:52.671Z,1.50
2019-03-13T08:15:58.698Z,1.30
2019-03-13T08:18:55.658Z,1.50
2019-03-13T08:22:07.968Z,1.53
2019-03-13T08:25:11.489Z,1.50
2019-03-13T08:28:16.486Z,1.53
2019-03-13T08:31:21.472Z,1.60
2019-03-13T08:34:28.041Z,1.73
2019-03-13T08:37:25.195Z,1.60
2019-03-13T08:40:22.267Z,1.77
2019-03-13T08:43:18.581Z,1.60
2019-03-13T08:46:12.914Z,1.90
2019-03-13T08:49:25.121Z,1.40
2019-03-13T08:52:37.506Z,1.80
2019-03-13T08:55:44.394Z,1.43
2019-03-13T08:58:56.365Z,1.50
2019-03-13T09:02:07.888Z,1.70
2019-03-13T09:05:01.027Z,1.77
2019-03-13T09:08:16.166Z,1.73
2019-03-13T09:11:21.503Z,1.60
2019-03-13T09:14:33.521Z,1.83
2019-03-13T09:17:45.097Z,1.77
2019-03-13T09:20:49.817Z,1.83
2019-03-13T09:23:58.514Z,2.30
2019-03-13T09:27:07.172Z,2.00
2019-03-13T09:30:16.209Z,2.10
2019-03-13T09:33:40.403Z,1.93
2019-03-13T09:36:52.344Z,2.40
2019-03-13T09:39:56.824Z,2.10
2019-03-13T09:43:01.130Z,1.93
2019-03-13T09:46:07.478Z,2.13
2019-03-13T09:49:22.150Z,2.00
2019-03-13T09:52:43.676Z,2.00
2019-03-13T09:55:48.244Z,2.00
2019-03-13T09:59:06.329Z,2.30
2019-03-13T10:02:18.533Z,2.20
2019-03-13T10:05:14.138Z,2.40
2019-03-13T10:08:32.377Z,2.40
2019-03-13T10:11:56.546Z,2.53
2019-03-13T10:14:53.971Z,2.90
2019-03-13T10:18:05.531Z,2.73
2019-03-13T10:21:14.432Z,2.50
2019-03-13T10:24:19.802Z,2.73
2019-03-13T10:27:23.294Z,2.50
2019-03-13T10:30:30.016Z,3.07
2019-03-13T10:33:36.200Z,3.27
2019-03-13T10:36:36.809Z,4.47
2019-03-13T10:39:34.707Z,2.80
2019-03-13T10:42:50.010Z,3.20
2019-03-13T10:45:59.195Z,3.60
2019-03-13T10:49:07.975Z,3.60
2019-03-13T10:52:29.051Z,3.40
2019-03-13T10:55:32.101Z,3.20
2019-03-13T10:58:34.454Z,3.17
2019-03-13T11:01:35.715Z,3.40
2019-03-13T11:04:53.919Z,3.60
2019-03-13T11:07:58.328Z,3.70
2019-03-13T11:11:13.380Z,3.87
2019-03-13T11:14:16.237Z,4.00
2019-03-13T11:17:28.261Z,4.47
2019-03-13T11:20:36.745Z,4.20
2019-03-13T11:23:51.934Z,4.20
2019-03-13T11:26:48.427Z,4.50
2019-03-13T11:30:00.951Z,4.47
2019-03-13T11:33:05.675Z,4.53
2019-03-13T11:35:58.783Z,3.97
2019-03-13T11:39:08.331Z,4.20
2019-03-13T11:42:23.866Z,4.47
2019-03-13T11:45:45.069Z,4.20
2019-03-13T11:49:00.093Z,3.97
2019-03-13T11:52:04.459Z,4.13
2019-03-13T11:54:57.692Z,4.07
2019-03-13T11:58:02.490Z,4.27
2019-03-13T12:01:13.287Z,4.00
2019-03-13T12:04:31.187Z,4.07
2019-03-13T12:07:35.268Z,3.67
2019-03-13T12:10:50.326Z,3.43
2019-03-13T12:13:59.383Z,3.60
2019-03-13T12:17:03.734Z,3.77
2019-03-13T12:20:05.635Z,3.53
2019-03-13T12:23:10.644Z,3.53
2019-03-13T12:26:09.587Z,3.70
2019-03-13T12:29:14.195Z,3.50
2019-03-13T12:32:31.987Z,3.60
2019-03-13T12:35:41.184Z,3.97
2019-03-13T12:38:36.077Z,3.37
2019-03-13T12:41:42.086Z,3.67
2019-03-13T12:44:41.613Z,3.77
2019-03-13T12:48:15.859Z,3.57
2019-03-13T12:50:59.905Z,3.33
2019-03-13T12:54:02.800Z,3.40
2019-03-13T12:57:08.057Z,3.63
2019-03-13T13:00:17.098Z,4.00
2019-03-13T13:03:26.350Z,3.90
2019-03-13T13:06:28.643Z,3.23
2019-03-13T13:09:46.800Z,3.93
2019-03-13T13:12:51.502Z,3.80
2019-03-13T13:16:09.910Z,3.77
2019-03-13T13:18:57.127Z,3.93
2019-03-13T13:21:44.886Z,3.30
2019-03-13T13:24:31.909Z,3.73
2019-03-13T13:27:19.886Z,3.50
2019-03-13T13:30:07.646Z,3.40
2019-03-13T13:32:54.578Z,3.30
2019-03-13T13:35:42.056Z,3.83
2019-03-13T13:38:29.453Z,3.63
2019-03-13T13:41:16.971Z,3.60
2019-03-13T13:44:04.482Z,3.03
2019-03-13T13:46:52.105Z,3.70
2019-03-13T13:49:39.661Z,3.63
2019-03-13T13:52:27.118Z,3.70
2019-03-13T13:55:14.648Z,3.67
2019-03-13T13:58:02.321Z,3.77
2019-03-13T14:00:49.849Z,4.00
2019-03-13T14:03:37.306Z,3.70
2019-03-13T14:06:24.775Z,3.77
2019-03-13T14:09:12.343Z,3.77
2019-03-13T14:11:59.837Z,4.23
2019-03-13T14:14:46.894Z,3.40
2019-03-13T14:17:34.138Z,3.77
2019-03-13T14:20:20.910Z,3.80
2019-03-13T14:23:08.385Z,3.13
2019-03-13T14:25:55.909Z,3.70
2019-03-13T14:28:42.927Z,3.60
2019-03-13T14:31:30.494Z,3.30
2019-03-13T14:34:18.026Z,3.33
2019-03-13T14:37:05.157Z,3.10
2019-03-13T14:39:52.486Z,3.30
2019-03-13T14:42:39.955Z,3.40
2019-03-13T14:45:27.570Z,2.90
2019-03-13T14:48:15.042Z,3.30
2019-03-13T14:51:01.944Z,2.90
2019-03-13T14:53:49.277Z,2.53
2019-03-13T14:56:36.944Z,2.60
2019-03-13T14:59:24.459Z,2.50
2019-03-13T15:02:12.029Z,2.40
2019-03-13T15:04:59.527Z,2.40
2019-03-13T15:07:47.110Z,2.27
2019-03-13T15:10:34.590Z,2.50
2019-03-13T15:13:21.627Z,2.40
2019-03-13T15:16:08.733Z,2.43
2019-03-13T15:18:55.722Z,2.33
2019-03-13T15:21:43.009Z,2.13
2019-03-13T15:24:30.344Z,1.90
2019-03-13T15:27:17.799Z,2.40
2019-03-13T15:30:06.514Z,2.17
2019-03-13T15:32:53.611Z,2.03
2019-03-13T15:35:40.651Z,2.10
2019-03-13T15:38:27.947Z,2.00
2019-03-13T15:41:15.463Z,2.20
2019-03-13T15:44:02.482Z,1.80
2019-03-13T15:46:49.616Z,1.90
2019-03-13T15:49:37.116Z,2.20
2019-03-13T15:52:24.766Z,2.13
2019-03-13T15:55:12.434Z,1.80
2019-03-13T15:57:59.791Z,2.13
2019-03-13T16:00:46.823Z,1.80
2019-03-13T16:03:34.158Z,2.17
2019-03-13T16:06:21.686Z,2.93
2019-03-13T16:09:09.282Z,2.13
2019-03-13T16:11:56.824Z,2.27
2019-03-13T16:14:44.543Z,2.00
2019-03-13T16:17:31.803Z,1.80
2019-03-13T16:20:19.702Z,1.57
2019-03-13T16:23:07.015Z,1.47
2019-03-13T16:25:54.524Z,2.30
2019-03-13T16:28:42.112Z,1.90
2019-03-13T16:31:29.425Z,1.90
2019-03-13T16:34:17.095Z,2.00
2019-03-13T16:37:04.642Z,1.60
2019-03-13T16:39:52.103Z,1.80
2019-03-13T16:42:39.728Z,1.70
2019-03-13T16:45:27.332Z,1.60
2019-03-13T16:48:14.907Z,1.87
2019-03-13T16:51:02.391Z,2.17
2019-03-13T16:53:51.565Z,2.33
2019-03-13T16:56:39.358Z,2.40
2019-03-13T16:59:26.922Z,2.47
2019-03-13T17:02:14.434Z,2.00
2019-03-13T17:05:02.062Z,2.30
2019-03-13T17:07:50.016Z,1.80
2019-03-13T17:10:37.531Z,1.83
2019-03-13T17:13:24.720Z,2.13
2019-03-13T17:16:12.065Z,2.00
2019-03-13T17:18:59.164Z,2.00
2019-03-13T17:21:46.630Z,1.87
2019-03-13T17:24:34.335Z,1.90
2019-03-13T17:27:21.907Z,1.93
2019-03-13T17:30:10.671Z,1.87
2019-03-13T17:32:57.703Z,2.07
2019-03-13T17:35:45.161Z,2.20
2019-03-13T17:38:32.637Z,1.90
2019-03-13T17:41:20.345Z,1.77
2019-03-13T17:44:07.321Z,2.23
2019-03-13T17:46:54.946Z,2.23
2019-03-13T17:49:42.377Z,2.10
2019-03-13T17:52:29.927Z,2.47
2019-03-13T17:55:17.479Z,2.60
2019-03-13T17:58:04.780Z,2.77
2019-03-13T18:00:52.295Z,2.47
2019-03-13T18:03:39.096Z,2.20
2019-03-13T18:06:26.705Z,2.77
2019-03-13T18:09:14.277Z,2.77
2019-03-13T18:12:01.521Z,2.37
2019-03-13T18:14:48.624Z,2.33
2019-03-13T18:17:36.074Z,2.73
2019-03-13T18:20:23.659Z,2.43
2019-03-13T18:23:11.243Z,2.30
2019-03-13T18:25:58.943Z,2.17
2019-03-13T18:28:46.179Z,2.83
2019-03-13T18:31:33.877Z,3.20
2019-03-13T18:34:20.879Z,2.63
2019-03-13T18:37:07.882Z,3.30
2019-03-13T18:39:54.861Z,2.40
2019-03-13T18:42:41.952Z,2.53
2019-03-13T18:45:29.305Z,2.90
2019-03-13T18:48:16.860Z,2.80
2019-03-13T18:51:04.579Z,2.77
2019-03-13T18:53:52.173Z,2.50
2019-03-13T18:56:39.385Z,3.10
2019-03-13T18:59:26.930Z,3.13
2019-03-13T19:02:13.998Z,2.70
2019-03-13T19:05:01.464Z,2.67
2019-03-13T19:07:48.974Z,3.20
2019-03-13T19:10:36.138Z,2.27
2019-03-13T19:13:24.047Z,3.50
2019-03-13T19:16:11.278Z,3.23
2019-03-13T19:18:58.327Z,3.00
2019-03-13T19:21:45.895Z,2.90
2019-03-13T19:24:33.614Z,2.90
2019-03-13T19:27:21.096Z,2.97
2019-03-13T19:30:12.838Z,3.37
2019-03-13T19:33:00.582Z,3.60
2019-03-13T19:35:48.354Z,3.47
2019-03-13T19:38:35.810Z,3.20
2019-03-13T19:41:23.393Z,3.30
2019-03-13T19:44:10.914Z,2.77
2019-03-13T19:46:58.359Z,2.67
2019-03-13T19:49:45.682Z,3.33
2019-03-13T19:52:33.182Z,3.17
2019-03-13T19:55:20.739Z,3.23
2019-03-13T19:58:08.255Z,3.23
2019-03-13T20:00:55.354Z,3.20
2019-03-13T20:03:54.728Z,3.47
2019-03-13T20:06:41.701Z,3.27
2019-03-13T20:09:20.002Z,3.47
2019-03-13T20:12:07.601Z,3.20
2019-03-13T20:14:54.555Z,3.33
2019-03-13T20:17:42.371Z,3.10
2019-03-13T20:20:29.361Z,3.50
2019-03-13T20:23:16.524Z,3.13
2019-03-13T20:26:03.541Z,3.50
2019-03-13T20:28:51.076Z,3.57
2019-03-13T20:31:38.729Z,3.30
2019-03-13T20:34:25.817Z,3.53
2019-03-13T20:37:12.852Z,3.80
2019-03-13T20:39:59.924Z,3.10
2019-03-13T20:42:47.275Z,3.00
2019-03-13T20:45:35.027Z,3.77
2019-03-13T20:48:22.538Z,3.47
2019-03-13T20:51:10.133Z,3.60
2019-03-13T20:53:57.699Z,3.40
2019-03-13T20:56:45.402Z,3.87
2019-03-13T20:59:32.918Z,3.60
2019-03-13T21:02:19.667Z,3.83
2019-03-13T21:05:07.623Z,3.60
2019-03-13T21:07:55.116Z,3.70
2019-03-13T21:10:42.428Z,3.20
2019-03-13T21:13:30.036Z,4.10
2019-03-13T21:16:17.649Z,3.67
2019-03-13T21:19:04.730Z,3.53
2019-03-13T21:21:51.724Z,3.60
2019-03-13T21:24:39.388Z,3.60
2019-03-13T21:27:26.855Z,4.33
2019-03-13T21:30:15.449Z,3.50
2019-03-13T21:33:02.734Z,3.57
2019-03-13T21:35:50.382Z,3.63
2019-03-13T21:38:37.875Z,3.93
2019-03-13T21:41:25.515Z,3.60
2019-03-13T21:44:12.994Z,4.00
2019-03-13T21:47:00.414Z,3.97
2019-03-13T21:49:47.887Z,3.67
2019-03-13T21:52:35.544Z,4.00
2019-03-13T21:55:22.659Z,4.03
2019-03-13T21:58:10.032Z,4.20
2019-03-13T22:00:57.544Z,3.70
2019-03-13T22:03:45.067Z,3.90
2019-03-13T22:06:32.711Z,4.10
2019-03-13T22:09:20.343Z,4.13
2019-03-13T22:12:07.878Z,3.63
2019-03-13T22:14:54.842Z,3.67
2019-03-13T22:17:41.994Z,4.17
2019-03-13T22:20:29.538Z,4.03
2019-03-13T22:23:16.747Z,4.17
2019-03-13T22:26:04.476Z,4.07
2019-03-13T22:28:52.022Z,4.03
2019-03-13T22:31:39.658Z,3.70
2019-03-13T22:34:26.936Z,4.07
2019-03-13T22:37:14.506Z,4.03
2019-03-13T22:40:01.949Z,3.73
2019-03-13T22:42:49.050Z,3.73
2019-03-13T22:45:36.442Z,3.97
2019-03-13T22:48:23.973Z,4.10
2019-03-13T22:51:11.455Z,4.30
2019-03-13T22:53:58.943Z,4.87
2019-03-13T22:56:46.014Z,4.07
2019-03-13T22:59:34.391Z,4.20
2019-03-13T23:02:21.918Z,4.20
2019-03-13T23:05:09.321Z,4.90
2019-03-13T23:07:56.589Z,4.63
2019-03-13T23:10:44.027Z,4.30
2019-03-13T23:13:31.625Z,4.77
2019-03-13T23:16:19.252Z,5.07
2019-03-13T23:19:06.803Z,4.67
2019-03-13T23:21:54.243Z,4.73
2019-03-13T23:24:41.554Z,5.60
2019-03-13T23:27:28.776Z,4.60
2019-03-13T23:30:16.257Z,4.77
2019-03-13T23:33:03.829Z,5.17
2019-03-13T23:35:51.403Z,4.53
2019-03-13T23:38:38.644Z,4.13
2019-03-13T23:41:26.109Z,5.00
2019-03-13T23:44:13.410Z,4.13
2019-03-13T23:47:00.492Z,4.47
2019-03-13T23:49:48.058Z,4.40
2019-03-13T23:52:35.577Z,4.53
2019-03-13T23:55:22.989Z,4.23
2019-03-13T23:58:11.483Z,4.33
